sensor_id;sensor_type;location;lat;lon;timestamp;P1;durP1;ratioP1;P2;durP2;ratioP2
55312;SDS011;46892;45.668;11.756;2023-05-10T00:01:37;2.00;;;1.50;;
55312;SDS011;46892;45.668;11.756;2023-05-10T00:04:03;3.47;;;1.60;;
55312;SDS011;46892;45.668;11.756;2023-05-10T00:06:29;3.80;;;1.60;;
55312;SDS011;46892;45.668;11.756;2023-05-10T00:08:55;3.33;;;1.53;;
55312;SDS011;46892;45.668;11.756;2023-05-10T00:11:20;3.27;;;2.00;;
55312;SDS011;46892;45.668;11.756;2023-05-10T00:13:46;2.83;;;1.57;;
55312;SDS011;46892;45.668;11.756;2023-05-10T00:16:12;3.93;;;1.67;;
55312;SDS011;46892;45.668;11.756;2023-05-10T00:18:38;2.30;;;1.67;;
55312;SDS011;46892;45.668;11.756;2023-05-10T00:21:04;2.70;;;1.57;;
55312;SDS011;46892;45.668;11.756;2023-05-10T00:23:30;3.47;;;1.70;;
55312;SDS011;46892;45.668;11.756;2023-05-10T00:25:56;3.80;;;1.60;;
55312;SDS011;46892;45.668;11.756;2023-05-10T00:28:21;2.27;;;1.60;;
55312;SDS011;46892;45.668;11.756;2023-05-10T00:30:47;2.40;;;1.67;;
55312;SDS011;46892;45.668;11.756;2023-05-10T00:33:13;2.63;;;1.40;;
55312;SDS011;46892;45.668;11.756;2023-05-10T00:35:39;3.13;;;1.50;;
55312;SDS011;46892;45.668;11.756;2023-05-10T00:38:05;3.03;;;1.77;;
55312;SDS011;46892;45.668;11.756;2023-05-10T00:40:31;3.97;;;1.60;;
55312;SDS011;46892;45.668;11.756;2023-05-10T00:42:57;3.37;;;1.80;;
55312;SDS011;46892;45.668;11.756;2023-05-10T00:45:24;2.47;;;1.70;;
55312;SDS011;46892;45.668;11.756;2023-05-10T00:47:50;5.50;;;2.17;;
55312;SDS011;46892;45.668;11.756;2023-05-10T00:50:19;3.72;;;1.60;;
55312;SDS011;46892;45.668;11.756;2023-05-10T00:52:46;4.03;;;1.80;;
55312;SDS011;46892;45.668;11.756;2023-05-10T00:55:12;3.47;;;2.00;;
55312;SDS011;46892;45.668;11.756;2023-05-10T00:57:38;3.20;;;1.77;;
55312;SDS011;46892;45.668;11.756;2023-05-10T01:00:04;5.40;;;2.10;;
55312;SDS011;46892;45.668;11.756;2023-05-10T01:02:30;4.63;;;2.07;;
55312;SDS011;46892;45.668;11.756;2023-05-10T01:04:58;4.40;;;2.00;;
55312;SDS011;46892;45.668;11.756;2023-05-10T01:07:24;3.57;;;2.10;;
55312;SDS011;46892;45.668;11.756;2023-05-10T01:09:50;6.10;;;1.90;;
55312;SDS011;46892;45.668;11.756;2023-05-10T01:12:16;6.13;;;2.00;;
55312;SDS011;46892;45.668;11.756;2023-05-10T01:14:42;4.47;;;2.20;;
55312;SDS011;46892;45.668;11.756;2023-05-10T01:17:08;2.83;;;2.10;;
55312;SDS011;46892;45.668;11.756;2023-05-10T01:19:35;5.03;;;1.97;;
55312;SDS011;46892;45.668;11.756;2023-05-10T01:41:48;3.80;;;2.27;;
55312;SDS011;46892;45.668;11.756;2023-05-10T01:44:24;3.10;;;2.13;;
55312;SDS011;46892;45.668;11.756;2023-05-10T01:46:58;4.33;;;2.50;;
55312;SDS011;46892;45.668;11.756;2023-05-10T01:49:32;6.67;;;2.40;;
55312;SDS011;46892;45.668;11.756;2023-05-10T01:52:04;3.47;;;2.30;;
55312;SDS011;46892;45.668;11.756;2023-05-10T01:54:34;4.13;;;2.20;;
55312;SDS011;46892;45.668;11.756;2023-05-10T01:57:04;5.40;;;2.20;;
55312;SDS011;46892;45.668;11.756;2023-05-10T01:59:34;5.95;;;2.65;;
55312;SDS011;46892;45.668;11.756;2023-05-10T02:02:02;3.33;;;2.40;;
55312;SDS011;46892;45.668;11.756;2023-05-10T02:04:29;3.87;;;2.30;;
55312;SDS011;46892;45.668;11.756;2023-05-10T02:06:56;3.70;;;2.30;;
55312;SDS011;46892;45.668;11.756;2023-05-10T02:09:22;3.87;;;2.00;;
55312;SDS011;46892;45.668;11.756;2023-05-10T02:11:50;2.93;;;2.27;;
55312;SDS011;46892;45.668;11.756;2023-05-10T02:14:16;6.53;;;2.53;;
55312;SDS011;46892;45.668;11.756;2023-05-10T02:16:43;6.67;;;2.40;;
55312;SDS011;46892;45.668;11.756;2023-05-10T02:19:11;4.97;;;2.30;;
55312;SDS011;46892;45.668;11.756;2023-05-10T02:21:39;3.60;;;2.40;;
55312;SDS011;46892;45.668;11.756;2023-05-10T02:24:06;3.37;;;2.07;;
55312;SDS011;46892;45.668;11.756;2023-05-10T02:26:33;3.60;;;2.00;;
55312;SDS011;46892;45.668;11.756;2023-05-10T02:29:01;3.20;;;2.00;;
55312;SDS011;46892;45.668;11.756;2023-05-10T02:31:29;2.90;;;2.00;;
55312;SDS011;46892;45.668;11.756;2023-05-10T02:33:57;2.83;;;2.03;;
55312;SDS011;46892;45.668;11.756;2023-05-10T02:36:23;5.67;;;2.00;;
55312;SDS011;46892;45.668;11.756;2023-05-10T02:38:52;2.93;;;2.00;;
55312;SDS011;46892;45.668;11.756;2023-05-10T02:41:19;5.40;;;2.20;;
55312;SDS011;46892;45.668;11.756;2023-05-10T02:43:49;2.37;;;1.83;;
55312;SDS011;46892;45.668;11.756;2023-05-10T02:46:20;3.30;;;2.23;;
55312;SDS011;46892;45.668;11.756;2023-05-10T02:48:46;3.70;;;2.07;;
55312;SDS011;46892;45.668;11.756;2023-05-10T02:51:12;3.30;;;2.17;;
55312;SDS011;46892;45.668;11.756;2023-05-10T02:53:42;3.37;;;2.10;;
55312;SDS011;46892;45.668;11.756;2023-05-10T02:56:30;2.97;;;2.10;;
55312;SDS011;46892;45.668;11.756;2023-05-10T02:58:59;3.30;;;2.17;;
55312;SDS011;46892;45.668;11.756;2023-05-10T03:01:25;6.00;;;2.13;;
55312;SDS011;46892;45.668;11.756;2023-05-10T03:03:50;6.13;;;2.17;;
55312;SDS011;46892;45.668;11.756;2023-05-10T03:06:16;3.70;;;2.53;;
55312;SDS011;46892;45.668;11.756;2023-05-10T03:08:42;3.43;;;2.20;;
55312;SDS011;46892;45.668;11.756;2023-05-10T03:14:21;3.57;;;2.17;;
55312;SDS011;46892;45.668;11.756;2023-05-10T03:17:11;3.07;;;2.20;;
55312;SDS011;46892;45.668;11.756;2023-05-10T03:19:56;3.43;;;2.47;;
55312;SDS011;46892;45.668;11.756;2023-05-10T03:22:24;3.57;;;2.40;;
55312;SDS011;46892;45.668;11.756;2023-05-10T03:24:53;3.42;;;2.22;;
55312;SDS011;46892;45.668;11.756;2023-05-10T03:27:22;6.53;;;2.70;;
55312;SDS011;46892;45.668;11.756;2023-05-10T03:29:50;3.97;;;2.33;;
55312;SDS011;46892;45.668;11.756;2023-05-10T03:32:17;4.43;;;2.23;;
55312;SDS011;46892;45.668;11.756;2023-05-10T03:34:43;2.43;;;1.83;;
55312;SDS011;46892;45.668;11.756;2023-05-10T03:37:09;2.87;;;1.90;;
55312;SDS011;46892;45.668;11.756;2023-05-10T03:39:35;10.60;;;2.40;;
55312;SDS011;46892;45.668;11.756;2023-05-10T03:42:01;4.60;;;2.20;;
55312;SDS011;46892;45.668;11.756;2023-05-10T03:44:27;4.93;;;2.00;;
55312;SDS011;46892;45.668;11.756;2023-05-10T03:46:52;2.80;;;2.10;;
55312;SDS011;46892;45.668;11.756;2023-05-10T03:49:18;3.60;;;2.07;;
55312;SDS011;46892;45.668;11.756;2023-05-10T03:51:43;3.67;;;2.20;;
55312;SDS011;46892;45.668;11.756;2023-05-10T03:54:09;4.53;;;2.17;;
55312;SDS011;46892;45.668;11.756;2023-05-10T03:56:35;3.47;;;2.40;;
55312;SDS011;46892;45.668;11.756;2023-05-10T03:59:00;3.80;;;2.00;;
55312;SDS011;46892;45.668;11.756;2023-05-10T04:01:26;2.53;;;2.03;;
55312;SDS011;46892;45.668;11.756;2023-05-10T04:03:52;2.70;;;2.07;;
55312;SDS011;46892;45.668;11.756;2023-05-10T04:06:17;3.97;;;2.20;;
55312;SDS011;46892;45.668;11.756;2023-05-10T04:08:43;3.03;;;2.10;;
55312;SDS011;46892;45.668;11.756;2023-05-10T04:11:09;4.03;;;1.90;;
55312;SDS011;46892;45.668;11.756;2023-05-10T04:13:36;3.37;;;2.10;;
55312;SDS011;46892;45.668;11.756;2023-05-10T04:16:03;3.23;;;2.03;;
55312;SDS011;46892;45.668;11.756;2023-05-10T04:18:29;3.27;;;2.00;;
55312;SDS011;46892;45.668;11.756;2023-05-10T04:20:55;2.63;;;1.90;;
55312;SDS011;46892;45.668;11.756;2023-05-10T04:23:21;3.93;;;2.17;;
55312;SDS011;46892;45.668;11.756;2023-05-10T04:25:47;3.20;;;2.03;;
55312;SDS011;46892;45.668;11.756;2023-05-10T04:28:12;3.67;;;2.20;;
55312;SDS011;46892;45.668;11.756;2023-05-10T04:30:38;3.60;;;2.37;;
55312;SDS011;46892;45.668;11.756;2023-05-10T04:33:03;5.20;;;2.33;;
55312;SDS011;46892;45.668;11.756;2023-05-10T04:35:29;4.10;;;2.23;;
55312;SDS011;46892;45.668;11.756;2023-05-10T04:37:55;2.70;;;2.30;;
55312;SDS011;46892;45.668;11.756;2023-05-10T04:40:21;2.97;;;2.33;;
55312;SDS011;46892;45.668;11.756;2023-05-10T04:42:46;5.90;;;2.40;;
55312;SDS011;46892;45.668;11.756;2023-05-10T04:45:12;5.13;;;2.30;;
55312;SDS011;46892;45.668;11.756;2023-05-10T04:47:39;3.33;;;2.00;;
55312;SDS011;46892;45.668;11.756;2023-05-10T04:50:05;4.30;;;2.47;;
55312;SDS011;46892;45.668;11.756;2023-05-10T04:52:32;4.60;;;2.30;;
55312;SDS011;46892;45.668;11.756;2023-05-10T04:54:57;2.97;;;2.27;;
55312;SDS011;46892;45.668;11.756;2023-05-10T04:57:23;3.47;;;2.37;;
55312;SDS011;46892;45.668;11.756;2023-05-10T04:59:49;3.67;;;2.33;;
55312;SDS011;46892;45.668;11.756;2023-05-10T05:02:14;3.10;;;2.30;;
55312;SDS011;46892;45.668;11.756;2023-05-10T05:04:40;4.60;;;2.60;;
55312;SDS011;46892;45.668;11.756;2023-05-10T05:07:06;3.40;;;2.40;;
55312;SDS011;46892;45.668;11.756;2023-05-10T05:09:31;3.80;;;2.47;;
55312;SDS011;46892;45.668;11.756;2023-05-10T05:11:57;3.77;;;2.43;;
55312;SDS011;46892;45.668;11.756;2023-05-10T05:14:23;3.27;;;2.30;;
55312;SDS011;46892;45.668;11.756;2023-05-10T05:16:50;3.87;;;2.40;;
55312;SDS011;46892;45.668;11.756;2023-05-10T05:19:17;4.10;;;2.67;;
55312;SDS011;46892;45.668;11.756;2023-05-10T05:21:42;4.50;;;2.60;;
55312;SDS011;46892;45.668;11.756;2023-05-10T05:24:08;4.50;;;2.57;;
55312;SDS011;46892;45.668;11.756;2023-05-10T05:26:35;3.70;;;2.30;;
55312;SDS011;46892;45.668;11.756;2023-05-10T05:29:01;4.40;;;2.87;;
55312;SDS011;46892;45.668;11.756;2023-05-10T05:31:27;3.37;;;2.40;;
55312;SDS011;46892;45.668;11.756;2023-05-10T05:33:53;4.53;;;2.93;;
55312;SDS011;46892;45.668;11.756;2023-05-10T05:36:19;6.90;;;2.80;;
55312;SDS011;46892;45.668;11.756;2023-05-10T05:38:45;4.33;;;2.33;;
55312;SDS011;46892;45.668;11.756;2023-05-10T05:41:10;3.90;;;2.60;;
55312;SDS011;46892;45.668;11.756;2023-05-10T05:43:36;4.07;;;2.60;;
55312;SDS011;46892;45.668;11.756;2023-05-10T05:46:01;5.17;;;2.87;;
55312;SDS011;46892;45.668;11.756;2023-05-10T05:48:29;3.30;;;2.47;;
55312;SDS011;46892;45.668;11.756;2023-05-10T05:50:55;5.77;;;2.90;;
55312;SDS011;46892;45.668;11.756;2023-05-10T05:53:24;6.43;;;2.63;;
55312;SDS011;46892;45.668;11.756;2023-05-10T05:58:19;4.50;;;2.60;;
55312;SDS011;46892;45.668;11.756;2023-05-10T06:00:45;5.47;;;3.00;;
55312;SDS011;46892;45.668;11.756;2023-05-10T06:03:11;6.13;;;3.03;;
55312;SDS011;46892;45.668;11.756;2023-05-10T06:05:37;4.00;;;2.50;;
55312;SDS011;46892;45.668;11.756;2023-05-10T06:08:03;4.50;;;3.23;;
55312;SDS011;46892;45.668;11.756;2023-05-10T06:10:28;4.57;;;3.03;;
55312;SDS011;46892;45.668;11.756;2023-05-10T06:12:55;4.60;;;3.20;;
55312;SDS011;46892;45.668;11.756;2023-05-10T06:15:21;5.57;;;3.33;;
55312;SDS011;46892;45.668;11.756;2023-05-10T06:17:47;5.07;;;3.50;;
55312;SDS011;46892;45.668;11.756;2023-05-10T06:20:14;4.83;;;3.47;;
55312;SDS011;46892;45.668;11.756;2023-05-10T06:22:40;6.30;;;3.63;;
55312;SDS011;46892;45.668;11.756;2023-05-10T06:25:07;5.50;;;3.50;;
55312;SDS011;46892;45.668;11.756;2023-05-10T06:27:33;4.07;;;2.90;;
55312;SDS011;46892;45.668;11.756;2023-05-10T06:29:59;4.37;;;3.30;;
55312;SDS011;46892;45.668;11.756;2023-05-10T06:32:25;4.67;;;3.27;;
55312;SDS011;46892;45.668;11.756;2023-05-10T06:34:50;5.37;;;3.37;;
55312;SDS011;46892;45.668;11.756;2023-05-10T06:37:17;5.40;;;3.20;;
55312;SDS011;46892;45.668;11.756;2023-05-10T06:39:42;5.20;;;3.30;;
55312;SDS011;46892;45.668;11.756;2023-05-10T06:42:08;7.37;;;3.70;;
55312;SDS011;46892;45.668;11.756;2023-05-10T06:44:34;4.47;;;3.43;;
55312;SDS011;46892;45.668;11.756;2023-05-10T06:46:59;4.97;;;3.40;;
55312;SDS011;46892;45.668;11.756;2023-05-10T06:49:25;6.67;;;3.57;;
55312;SDS011;46892;45.668;11.756;2023-05-10T06:51:51;4.33;;;3.30;;
55312;SDS011;46892;45.668;11.756;2023-05-10T06:54:16;6.53;;;3.60;;
55312;SDS011;46892;45.668;11.756;2023-05-10T06:56:43;7.13;;;3.83;;
55312;SDS011;46892;45.668;11.756;2023-05-10T06:59:08;5.97;;;3.43;;
55312;SDS011;46892;45.668;11.756;2023-05-10T07:01:34;5.30;;;3.07;;
55312;SDS011;46892;45.668;11.756;2023-05-10T07:04:00;5.13;;;3.23;;
55312;SDS011;46892;45.668;11.756;2023-05-10T07:06:25;3.93;;;2.87;;
55312;SDS011;46892;45.668;11.756;2023-05-10T07:08:52;5.37;;;3.60;;
55312;SDS011;46892;45.668;11.756;2023-05-10T07:11:18;5.17;;;3.77;;
55312;SDS011;46892;45.668;11.756;2023-05-10T07:13:43;5.27;;;3.67;;
55312;SDS011;46892;45.668;11.756;2023-05-10T07:16:11;6.03;;;3.60;;
55312;SDS011;46892;45.668;11.756;2023-05-10T07:18:36;4.90;;;3.40;;
55312;SDS011;46892;45.668;11.756;2023-05-10T07:21:02;5.73;;;3.90;;
55312;SDS011;46892;45.668;11.756;2023-05-10T07:23:28;7.97;;;3.83;;
55312;SDS011;46892;45.668;11.756;2023-05-10T07:25:54;5.13;;;3.77;;
55312;SDS011;46892;45.668;11.756;2023-05-10T07:28:22;4.93;;;3.80;;
55312;SDS011;46892;45.668;11.756;2023-05-10T07:30:49;6.03;;;4.17;;
55312;SDS011;46892;45.668;11.756;2023-05-10T07:33:15;5.77;;;3.87;;
55312;SDS011;46892;45.668;11.756;2023-05-10T07:35:41;7.90;;;4.17;;
55312;SDS011;46892;45.668;11.756;2023-05-10T07:38:07;7.30;;;4.00;;
55312;SDS011;46892;45.668;11.756;2023-05-10T07:40:33;6.73;;;3.80;;
55312;SDS011;46892;45.668;11.756;2023-05-10T07:42:58;6.13;;;3.40;;
55312;SDS011;46892;45.668;11.756;2023-05-10T07:45:28;5.37;;;3.83;;
55312;SDS011;46892;45.668;11.756;2023-05-10T07:47:53;6.80;;;4.37;;
55312;SDS011;46892;45.668;11.756;2023-05-10T07:50:19;5.37;;;3.90;;
55312;SDS011;46892;45.668;11.756;2023-05-10T07:52:46;5.73;;;4.07;;
55312;SDS011;46892;45.668;11.756;2023-05-10T07:55:13;5.17;;;4.03;;
55312;SDS011;46892;45.668;11.756;2023-05-10T07:57:38;4.73;;;3.50;;
55312;SDS011;46892;45.668;11.756;2023-05-10T08:00:04;5.27;;;3.47;;
55312;SDS011;46892;45.668;11.756;2023-05-10T08:02:31;7.33;;;3.90;;
55312;SDS011;46892;45.668;11.756;2023-05-10T08:04:58;5.07;;;4.00;;
55312;SDS011;46892;45.668;11.756;2023-05-10T08:07:24;7.00;;;3.93;;
55312;SDS011;46892;45.668;11.756;2023-05-10T08:09:50;5.87;;;3.50;;
55312;SDS011;46892;45.668;11.756;2023-05-10T08:12:16;5.77;;;3.40;;
55312;SDS011;46892;45.668;11.756;2023-05-10T08:14:42;5.53;;;3.33;;
55312;SDS011;46892;45.668;11.756;2023-05-10T08:17:08;5.37;;;3.30;;
55312;SDS011;46892;45.668;11.756;2023-05-10T08:19:33;4.80;;;3.60;;
55312;SDS011;46892;45.668;11.756;2023-05-10T08:21:59;6.23;;;3.57;;
55312;SDS011;46892;45.668;11.756;2023-05-10T08:24:25;5.23;;;3.60;;
55312;SDS011;46892;45.668;11.756;2023-05-10T08:26:51;6.07;;;3.40;;
55312;SDS011;46892;45.668;11.756;2023-05-10T08:29:16;8.13;;;3.50;;
55312;SDS011;46892;45.668;11.756;2023-05-10T08:31:42;5.27;;;3.60;;
55312;SDS011;46892;45.668;11.756;2023-05-10T08:34:08;5.37;;;3.37;;
55312;SDS011;46892;45.668;11.756;2023-05-10T08:36:34;4.67;;;3.30;;
55312;SDS011;46892;45.668;11.756;2023-05-10T08:39:01;4.47;;;3.00;;
55312;SDS011;46892;45.668;11.756;2023-05-10T08:41:29;4.27;;;3.03;;
55312;SDS011;46892;45.668;11.756;2023-05-10T08:43:56;4.40;;;3.47;;
55312;SDS011;46892;45.668;11.756;2023-05-10T08:46:23;5.50;;;3.10;;
55312;SDS011;46892;45.668;11.756;2023-05-10T08:48:50;3.87;;;3.10;;
55312;SDS011;46892;45.668;11.756;2023-05-10T08:51:17;4.20;;;3.40;;
55312;SDS011;46892;45.668;11.756;2023-05-10T08:53:45;4.17;;;3.20;;
55312;SDS011;46892;45.668;11.756;2023-05-10T08:56:11;4.77;;;3.77;;
55312;SDS011;46892;45.668;11.756;2023-05-10T08:58:37;5.57;;;3.50;;
55312;SDS011;46892;45.668;11.756;2023-05-10T09:01:04;5.57;;;3.70;;
55312;SDS011;46892;45.668;11.756;2023-05-10T09:03:30;5.67;;;3.83;;
55312;SDS011;46892;45.668;11.756;2023-05-10T09:05:57;4.97;;;3.43;;
55312;SDS011;46892;45.668;11.756;2023-05-10T09:08:23;5.30;;;4.00;;
55312;SDS011;46892;45.668;11.756;2023-05-10T09:10:54;3.95;;;3.35;;
55312;SDS011;46892;45.668;11.756;2023-05-10T09:13:21;5.53;;;3.50;;
55312;SDS011;46892;45.668;11.756;2023-05-10T09:15:47;5.37;;;3.90;;
55312;SDS011;46892;45.668;11.756;2023-05-10T09:18:13;5.27;;;3.70;;
55312;SDS011;46892;45.668;11.756;2023-05-10T09:20:39;5.70;;;3.87;;
55312;SDS011;46892;45.668;11.756;2023-05-10T09:23:05;6.27;;;3.90;;
55312;SDS011;46892;45.668;11.756;2023-05-10T09:25:31;5.87;;;4.27;;
55312;SDS011;46892;45.668;11.756;2023-05-10T09:28:00;5.20;;;3.87;;
55312;SDS011;46892;45.668;11.756;2023-05-10T09:30:29;5.40;;;4.00;;
55312;SDS011;46892;45.668;11.756;2023-05-10T09:32:56;7.07;;;4.18;;
55312;SDS011;46892;45.668;11.756;2023-05-10T09:35:24;6.37;;;4.20;;
55312;SDS011;46892;45.668;11.756;2023-05-10T09:37:52;6.40;;;4.20;;
55312;SDS011;46892;45.668;11.756;2023-05-10T09:40:20;6.30;;;4.03;;
55312;SDS011;46892;45.668;11.756;2023-05-10T09:42:51;5.80;;;4.20;;
55312;SDS011;46892;45.668;11.756;2023-05-10T09:45:17;6.32;;;3.78;;
55312;SDS011;46892;45.668;11.756;2023-05-10T09:47:43;5.30;;;3.60;;
55312;SDS011;46892;45.668;11.756;2023-05-10T09:50:09;6.67;;;4.27;;
55312;SDS011;46892;45.668;11.756;2023-05-10T09:55:23;7.43;;;4.00;;
55312;SDS011;46892;45.668;11.756;2023-05-10T09:57:58;6.47;;;4.43;;
55312;SDS011;46892;45.668;11.756;2023-05-10T10:00:25;9.07;;;4.20;;
55312;SDS011;46892;45.668;11.756;2023-05-10T10:02:58;5.10;;;3.67;;
55312;SDS011;46892;45.668;11.756;2023-05-10T10:05:28;7.30;;;4.60;;
55312;SDS011;46892;45.668;11.756;2023-05-10T10:07:58;5.23;;;4.10;;
55312;SDS011;46892;45.668;11.756;2023-05-10T10:10:25;7.23;;;4.40;;
55312;SDS011;46892;45.668;11.756;2023-05-10T10:12:52;6.47;;;4.70;;
55312;SDS011;46892;45.668;11.756;2023-05-10T10:15:18;6.90;;;4.57;;
55312;SDS011;46892;45.668;11.756;2023-05-10T10:17:45;6.53;;;4.57;;
55312;SDS011;46892;45.668;11.756;2023-05-10T10:20:11;9.17;;;5.33;;
55312;SDS011;46892;45.668;11.756;2023-05-10T10:22:37;6.00;;;4.73;;
55312;SDS011;46892;45.668;11.756;2023-05-10T10:25:04;7.80;;;5.53;;
55312;SDS011;46892;45.668;11.756;2023-05-10T10:35:57;7.40;;;5.00;;
55312;SDS011;46892;45.668;11.756;2023-05-10T10:38:24;6.07;;;4.57;;
55312;SDS011;46892;45.668;11.756;2023-05-10T10:41:33;7.50;;;4.70;;
55312;SDS011;46892;45.668;11.756;2023-05-10T10:54:56;8.37;;;5.67;;
55312;SDS011;46892;45.668;11.756;2023-05-10T10:57:54;7.82;;;5.22;;
55312;SDS011;46892;45.668;11.756;2023-05-10T11:00:31;7.83;;;5.63;;
55312;SDS011;46892;45.668;11.756;2023-05-10T11:03:04;8.57;;;6.07;;
55312;SDS011;46892;45.668;11.756;2023-05-10T11:05:44;8.80;;;6.10;;
55312;SDS011;46892;45.668;11.756;2023-05-10T11:08:26;7.95;;;6.38;;
55312;SDS011;46892;45.668;11.756;2023-05-10T11:11:02;7.23;;;6.13;;
55312;SDS011;46892;45.668;11.756;2023-05-10T11:16:21;9.83;;;7.47;;
55312;SDS011;46892;45.668;11.756;2023-05-10T11:19:05;9.30;;;6.37;;
55312;SDS011;46892;45.668;11.756;2023-05-10T11:21:33;8.53;;;6.23;;
55312;SDS011;46892;45.668;11.756;2023-05-10T11:24:00;9.50;;;6.13;;
55312;SDS011;46892;45.668;11.756;2023-05-10T11:26:31;11.00;;;6.50;;
55312;SDS011;46892;45.668;11.756;2023-05-10T11:28:58;8.67;;;5.73;;
55312;SDS011;46892;45.668;11.756;2023-05-10T11:31:25;8.30;;;6.00;;
55312;SDS011;46892;45.668;11.756;2023-05-10T11:33:58;7.30;;;5.63;;
55312;SDS011;46892;45.668;11.756;2023-05-10T11:36:27;7.97;;;6.07;;
55312;SDS011;46892;45.668;11.756;2023-05-10T11:38:54;7.60;;;5.80;;
55312;SDS011;46892;45.668;11.756;2023-05-10T11:41:21;7.57;;;6.00;;
55312;SDS011;46892;45.668;11.756;2023-05-10T11:43:51;7.73;;;5.87;;
55312;SDS011;46892;45.668;11.756;2023-05-10T11:46:24;7.68;;;5.97;;
55312;SDS011;46892;45.668;11.756;2023-05-10T11:48:52;8.47;;;5.87;;
55312;SDS011;46892;45.668;11.756;2023-05-10T11:51:22;10.17;;;6.53;;
55312;SDS011;46892;45.668;11.756;2023-05-10T11:53:50;7.90;;;6.15;;
55312;SDS011;46892;45.668;11.756;2023-05-10T11:56:18;22.50;;;14.93;;
55312;SDS011;46892;45.668;11.756;2023-05-10T11:58:45;10.57;;;9.30;;
55312;SDS011;46892;45.668;11.756;2023-05-10T12:01:21;10.80;;;7.50;;
55312;SDS011;46892;45.668;11.756;2023-05-10T12:03:47;9.27;;;7.60;;
55312;SDS011;46892;45.668;11.756;2023-05-10T12:06:18;11.65;;;6.95;;
55312;SDS011;46892;45.668;11.756;2023-05-10T12:08:44;9.77;;;6.87;;
55312;SDS011;46892;45.668;11.756;2023-05-10T12:11:12;11.20;;;7.67;;
55312;SDS011;46892;45.668;11.756;2023-05-10T12:13:42;11.07;;;8.03;;
55312;SDS011;46892;45.668;11.756;2023-05-10T12:16:18;14.57;;;9.07;;
55312;SDS011;46892;45.668;11.756;2023-05-10T12:18:53;16.23;;;11.93;;
55312;SDS011;46892;45.668;11.756;2023-05-10T12:21:21;13.67;;;9.87;;
55312;SDS011;46892;45.668;11.756;2023-05-10T12:23:51;14.33;;;11.10;;
55312;SDS011;46892;45.668;11.756;2023-05-10T12:28:43;30.43;;;21.73;;
55312;SDS011;46892;45.668;11.756;2023-05-10T12:31:09;14.77;;;11.17;;
55312;SDS011;46892;45.668;11.756;2023-05-10T12:33:39;12.40;;;8.07;;
55312;SDS011;46892;45.668;11.756;2023-05-10T12:36:09;10.20;;;8.17;;
55312;SDS011;46892;45.668;11.756;2023-05-10T12:38:38;12.10;;;9.40;;
55312;SDS011;46892;45.668;11.756;2023-05-10T12:41:05;13.30;;;10.87;;
55312;SDS011;46892;45.668;11.756;2023-05-10T12:43:32;14.07;;;11.73;;
55312;SDS011;46892;45.668;11.756;2023-05-10T12:48:32;12.93;;;9.73;;
55312;SDS011;46892;45.668;11.756;2023-05-10T12:50:59;15.77;;;11.43;;
55312;SDS011;46892;45.668;11.756;2023-05-10T12:53:25;16.90;;;12.73;;
55312;SDS011;46892;45.668;11.756;2023-05-10T12:55:51;14.43;;;10.57;;
55312;SDS011;46892;45.668;11.756;2023-05-10T12:58:16;16.67;;;9.33;;
55312;SDS011;46892;45.668;11.756;2023-05-10T13:00:42;13.07;;;9.87;;
55312;SDS011;46892;45.668;11.756;2023-05-10T13:03:08;15.20;;;11.07;;
55312;SDS011;46892;45.668;11.756;2023-05-10T13:05:35;16.47;;;11.93;;
55312;SDS011;46892;45.668;11.756;2023-05-10T13:08:01;14.03;;;10.07;;
55312;SDS011;46892;45.668;11.756;2023-05-10T13:10:28;13.30;;;9.40;;
55312;SDS011;46892;45.668;11.756;2023-05-10T13:12:55;13.77;;;11.83;;
55312;SDS011;46892;45.668;11.756;2023-05-10T13:15:21;14.10;;;11.20;;
55312;SDS011;46892;45.668;11.756;2023-05-10T13:17:47;12.70;;;9.73;;
55312;SDS011;46892;45.668;11.756;2023-05-10T13:20:12;13.77;;;10.83;;
55312;SDS011;46892;45.668;11.756;2023-05-10T13:22:38;13.33;;;9.47;;
55312;SDS011;46892;45.668;11.756;2023-05-10T13:25:04;12.13;;;10.13;;
55312;SDS011;46892;45.668;11.756;2023-05-10T13:27:30;13.57;;;9.63;;
55312;SDS011;46892;45.668;11.756;2023-05-10T13:29:56;13.10;;;9.63;;
55312;SDS011;46892;45.668;11.756;2023-05-10T13:32:24;13.63;;;11.03;;
55312;SDS011;46892;45.668;11.756;2023-05-10T13:34:50;14.33;;;9.90;;
55312;SDS011;46892;45.668;11.756;2023-05-10T13:37:16;12.63;;;9.90;;
55312;SDS011;46892;45.668;11.756;2023-05-10T13:39:42;17.27;;;13.03;;
55312;SDS011;46892;45.668;11.756;2023-05-10T13:42:07;13.60;;;8.70;;
55312;SDS011;46892;45.668;11.756;2023-05-10T13:44:33;12.07;;;8.53;;
55312;SDS011;46892;45.668;11.756;2023-05-10T13:46:59;11.63;;;8.20;;
55312;SDS011;46892;45.668;11.756;2023-05-10T13:49:25;12.43;;;9.63;;
55312;SDS011;46892;45.668;11.756;2023-05-10T13:51:51;11.17;;;7.93;;
55312;SDS011;46892;45.668;11.756;2023-05-10T13:54:17;12.40;;;8.70;;
55312;SDS011;46892;45.668;11.756;2023-05-10T13:56:45;12.03;;;9.50;;
55312;SDS011;46892;45.668;11.756;2023-05-10T13:59:12;14.00;;;10.40;;
55312;SDS011;46892;45.668;11.756;2023-05-10T14:01:39;16.10;;;11.57;;
55312;SDS011;46892;45.668;11.756;2023-05-10T14:04:08;14.67;;;10.90;;
55312;SDS011;46892;45.668;11.756;2023-05-10T14:06:35;13.87;;;9.57;;
55312;SDS011;46892;45.668;11.756;2023-05-10T14:09:01;16.80;;;11.40;;
55312;SDS011;46892;45.668;11.756;2023-05-10T14:11:27;12.07;;;8.63;;
55312;SDS011;46892;45.668;11.756;2023-05-10T14:13:53;13.10;;;9.40;;
55312;SDS011;46892;45.668;11.756;2023-05-10T14:16:19;22.40;;;16.40;;
55312;SDS011;46892;45.668;11.756;2023-05-10T14:18:45;19.40;;;13.70;;
55312;SDS011;46892;45.668;11.756;2023-05-10T14:21:11;18.10;;;13.43;;
55312;SDS011;46892;45.668;11.756;2023-05-10T14:23:37;42.17;;;29.43;;
55312;SDS011;46892;45.668;11.756;2023-05-10T14:26:03;61.27;;;42.07;;
55312;SDS011;46892;45.668;11.756;2023-05-10T14:28:28;25.53;;;18.23;;
55312;SDS011;46892;45.668;11.756;2023-05-10T14:30:54;89.97;;;65.43;;
55312;SDS011;46892;45.668;11.756;2023-05-10T14:33:20;12.53;;;10.67;;
55312;SDS011;46892;45.668;11.756;2023-05-10T14:35:46;11.70;;;9.83;;
55312;SDS011;46892;45.668;11.756;2023-05-10T14:38:12;12.17;;;9.37;;
55312;SDS011;46892;45.668;11.756;2023-05-10T14:40:38;12.77;;;10.27;;
55312;SDS011;46892;45.668;11.756;2023-05-10T14:43:04;26.03;;;20.80;;
55312;SDS011;46892;45.668;11.756;2023-05-10T14:45:30;19.47;;;17.47;;
55312;SDS011;46892;45.668;11.756;2023-05-10T14:47:56;14.47;;;12.97;;
55312;SDS011;46892;45.668;11.756;2023-05-10T14:50:22;13.10;;;11.60;;
55312;SDS011;46892;45.668;11.756;2023-05-10T14:52:48;13.33;;;11.93;;
55312;SDS011;46892;45.668;11.756;2023-05-10T14:55:14;13.03;;;11.63;;
55312;SDS011;46892;45.668;11.756;2023-05-10T14:57:40;12.20;;;10.37;;
55312;SDS011;46892;45.668;11.756;2023-05-10T15:00:06;13.87;;;10.87;;
55312;SDS011;46892;45.668;11.756;2023-05-10T15:02:32;12.77;;;10.33;;
55312;SDS011;46892;45.668;11.756;2023-05-10T15:04:58;11.57;;;10.17;;
55312;SDS011;46892;45.668;11.756;2023-05-10T15:07:23;27.07;;;21.50;;
55312;SDS011;46892;45.668;11.756;2023-05-10T15:09:50;12.40;;;10.40;;
55312;SDS011;46892;45.668;11.756;2023-05-10T15:12:17;13.87;;;10.70;;
55312;SDS011;46892;45.668;11.756;2023-05-10T15:14:43;14.00;;;12.27;;
55312;SDS011;46892;45.668;11.756;2023-05-10T15:17:08;14.23;;;11.83;;
55312;SDS011;46892;45.668;11.756;2023-05-10T15:19:35;14.47;;;12.17;;
55312;SDS011;46892;45.668;11.756;2023-05-10T15:22:01;13.07;;;11.30;;
55312;SDS011;46892;45.668;11.756;2023-05-10T15:24:27;16.10;;;12.63;;